首页
METAR-TAF:

METAR-TAF

机场 :

拉哥斯, 尼日利亚

穆尔塔拉·穆罕默德国际机场

纬度: 06-35N, 经度: 003-20E, 海拔: 40米

当前天气观测

该预报发布于1小时和27分钟前的13:00 UTC
风速2节,风向多变
温度 35°C
湿度 30%
气压 1010 hPa
能見度: 8000

METAR: DNMM 221300Z VRB02KT 8000 NSC 35/15 Q1010 NOSIG

时间: 15:27 (14:27 UTC)

预报

该预报发布于10小时和57分钟前的03:30 UTC
预报有效从22日的 06点(UTC)到 23日的 12点(UTC)
风速2节,风向多变
能見度: 8000
少量云层高于1100英尺
短暂存在
从 22日的 06点(UTC)到 22日的 08点(UTC)
能見度: 5000
成为
从 22日的 08点(UTC)到 22日的 10点(UTC)
风速10节,风向西转西南
多云层高于1300英尺

TAF: DNMM 220330Z 2206/2312 VRB02KT 8000 FEW011 TEMPO 2206/2208 5000 HZ BECMG 2208/2210 25010KT BKN013

超过4000个机场的气象观测和天气预报(METAR&TAF报告)。

可查询的气象台以黄色和红色小点在地图上表示。

将鼠标移到小点上方,可查看气象台名称。

然后点击查看天气观测和预报。

如需切换地图:点击带黑十字的绿色按钮放大地图;点击带横线的绿色按钮缩小地图;或者点击绿色箭头查看邻近地区的地图。


METAR-TAF: